Time;durP1;ratioP1;P1;durP2;ratioP2;P2;SDS_P1;SDS_P2;PMS_P1;PMS_P2;Temp;Humidity;BMP_temperature;BMP_pressure;BME280_temperature;BME280_humidity;BME280_pressure;Samples;Min_cycle;Max_cycle;Signal;HPM_P1;HPM_P2
2022/09/09 00:02:27;;;;;;;12.60;10.50;;;;;;;20.52;75.87;95081.66;5071945;28;20451;-83
2022/09/09 00:05:01;;;;;;;10.53;9.63;;;;;;;20.46;75.90;95061.09;5072236;28;20452;-83
2022/09/09 00:07:39;;;;;;;11.57;10.47;;;;;;;20.33;76.26;95059.06;5072359;28;20480;-84
2022/09/09 00:10:17;;;;;;;11.20;10.20;;;;;;;20.29;76.19;95064.97;5072034;28;20460;-83
2022/09/09 00:12:56;;;;;;;10.97;9.57;;;;;;;20.20;76.78;95066.88;5072261;28;20527;-83
2022/09/09 00:15:26;;;;;;;12.00;10.00;;;;;;;20.15;76.94;95069.25;5071853;28;20889;-82
2022/09/09 00:18:03;;;;;;;12.60;10.97;;;;;;;20.17;76.87;95072.56;5072022;28;20452;-82
2022/09/09 00:20:36;;;;;;;16.03;10.10;;;;;;;20.19;76.73;95075.03;5071739;28;20818;-83
2022/09/09 00:23:11;;;;;;;11.60;10.50;;;;;;;20.16;77.26;95065.59;5073511;28;20531;-83
2022/09/09 00:25:47;;;;;;;15.50;10.93;;;;;;;20.11;77.40;95068.81;5075486;28;20447;-82
2022/09/09 00:28:19;;;;;;;13.90;10.97;;;;;;;20.15;77.16;95063.94;5075457;28;20773;-82
2022/09/09 00:30:48;;;;;;;11.27;10.13;;;;;;;20.09;77.43;95060.19;5057324;28;20449;-82
2022/09/09 00:33:18;;;;;;;10.33;9.30;;;;;;;20.04;77.76;95057.25;5024249;28;20440;-82
2022/09/09 00:35:48;;;;;;;12.43;10.87;;;;;;;20.10;77.33;95055.69;5075189;28;20495;-82
2022/09/09 00:38:17;;;;;;;10.33;9.40;;;;;;;19.98;77.71;95043.84;5075535;28;20865;-82
2022/09/09 00:40:52;;;;;;;11.07;10.10;;;;;;;19.94;78.02;95040.69;5075291;28;20448;-82
2022/09/09 00:43:31;;;;;;;11.40;10.40;;;;;;;19.88;77.81;95030.78;5075441;28;20931;-83
2022/09/09 00:46:22;;;;;;;12.17;10.87;;;;;;;19.92;78.14;95032.06;5075222;28;20515;-82
2022/09/09 00:48:58;;;;;;;12.17;10.83;;;;;;;19.91;78.38;95022.41;5075150;28;20540;-81
2022/09/09 00:51:36;;;;;;;11.93;10.90;;;;;;;19.83;78.68;95022.50;5075238;28;20437;-83
2022/09/09 00:54:21;;;;;;;12.00;10.80;;;;;;;19.68;79.46;95016.38;5074852;28;20457;-84
2022/09/09 00:56:56;;;;;;;12.00;10.80;;;;;;;19.64;79.24;95013.22;5056062;28;20452;-83
2022/09/09 00:59:36;;;;;;;15.83;10.40;;;;;;;19.66;79.43;95029.00;5075193;28;20441;-83
2022/09/09 01:02:11;;;;;;;11.23;10.00;;;;;;;19.73;79.42;95029.97;5074938;28;20842;-83
2022/09/09 01:04:42;;;;;;;11.73;10.57;;;;;;;19.59;79.86;95025.44;5074922;28;20541;-81
2022/09/09 01:07:17;;;;;;;12.33;11.13;;;;;;;19.63;79.83;95029.38;5074655;28;20480;-83
2022/09/09 01:09:54;;;;;;;12.13;10.93;;;;;;;19.52;80.18;95019.97;5074866;28;20487;-83
2022/09/09 01:12:35;;;;;;;11.90;10.80;;;;;;;19.60;80.08;95027.09;5074710;28;20453;-83
2022/09/09 01:15:11;;;;;;;15.33;11.47;;;;;;;19.57;80.08;95032.78;5074502;28;20440;-83
2022/09/09 01:17:50;;;;;;;12.93;11.73;;;;;;;19.53;80.49;95032.31;5074646;28;20444;-82
2022/09/09 01:20:22;;;;;;;11.93;10.83;;;;;;;19.61;80.18;95036.72;5074448;28;20498;-82
2022/09/09 01:23:04;;;;;;;12.90;11.60;;;;;;;19.59;80.21;95036.91;5074777;28;20471;-83
2022/09/09 01:26:05;;;;;;;13.80;10.60;;;;;;;19.55;80.29;95038.28;5074281;28;20880;-84
2022/09/09 01:28:36;;;;;;;12.43;10.70;;;;;;;19.49;80.75;95029.16;5038976;28;20440;-82
2022/09/09 01:31:05;;;;;;;11.57;10.47;;;;;;;19.56;80.45;95023.13;5074600;28;20448;-83
2022/09/09 01:33:32;;;;;;;13.20;11.03;;;;;;;19.46;80.60;95016.22;5074451;28;20470;-83
2022/09/09 01:36:05;;;;;;;11.73;10.63;;;;;;;19.50;80.65;95025.50;5074221;28;20782;-82
2022/09/09 01:38:33;;;;;;;12.37;11.27;;;;;;;19.46;80.78;95026.88;5074625;28;20448;-83
2022/09/09 01:41:02;;;;;;;13.03;11.70;;;;;;;19.44;81.13;95036.03;5074287;28;20444;-82
2022/09/09 01:43:30;;;;;;;11.80;10.70;;;;;;;19.44;81.33;95044.03;5074217;28;20445;-83
2022/09/09 01:46:00;;;;;;;12.73;11.43;;;;;;;19.45;81.26;95048.34;5074231;28;20530;-82
2022/09/09 01:48:28;;;;;;;12.40;11.10;;;;;;;19.44;81.35;95038.69;5074426;28;20444;-83
2022/09/09 01:50:55;;;;;;;12.67;11.33;;;;;;;19.39;81.18;95043.75;5055882;28;20449;-82
2022/09/09 01:53:23;;;;;;;12.30;10.90;;;;;;;19.43;81.34;95045.88;5073696;28;20445;-82
2022/09/09 01:56:05;;;;;;;13.07;11.67;;;;;;;19.40;81.04;95037.41;5073805;28;20953;-82
2022/09/09 01:58:45;;;;;;;12.23;10.87;;;;;;;19.44;81.00;95049.34;5074282;28;20517;-83
2022/09/09 02:01:24;;;;;;;14.43;10.80;;;;;;;19.43;80.72;95053.03;5073928;28;20445;-83
2022/09/09 02:03:54;;;;;;;15.57;12.27;;;;;;;19.41;80.80;95052.38;5073930;28;20441;-82
2022/09/09 02:06:30;;;;;;;11.80;10.57;;;;;;;19.41;80.35;95047.06;5073687;28;20492;-83
2022/09/09 02:08:59;;;;;;;11.83;10.70;;;;;;;19.36;80.34;95052.06;5073723;28;20570;-83
2022/09/09 02:11:29;;;;;;;13.23;11.20;;;;;;;19.44;80.26;95052.00;5073430;28;20452;-83
2022/09/09 02:14:01;;;;;;;11.53;10.50;;;;;;;19.47;80.28;95048.97;5073582;28;20444;-83
2022/09/09 02:16:34;;;;;;;13.63;11.10;;;;;;;19.54;80.13;95049.13;5073879;28;20808;-83
2022/09/09 02:19:07;;;;;;;20.33;10.47;;;;;;;19.58;79.90;95055.72;5073404;28;20445;-82
2022/09/09 02:21:36;;;;;;;13.33;10.53;;;;;;;19.59;79.70;95052.06;5073328;28;20445;-83
2022/09/09 02:24:07;;;;;;;13.30;10.27;;;;;;;19.49;80.08;95047.78;5073151;28;20478;-82
2022/09/09 02:26:40;;;;;;;12.73;11.03;;;;;;;19.49;80.17;95031.00;5073520;28;20487;-83
2022/09/09 02:29:10;;;;;;;15.20;10.60;;;;;;;19.34;80.72;95022.16;5073244;28;20472;-83
2022/09/09 02:31:39;;;;;;;11.73;10.60;;;;;;;19.34;81.12;95024.81;5054834;28;20931;-83
2022/09/09 02:34:08;;;;;;;12.90;11.07;;;;;;;19.34;81.09;95028.28;5073074;28;20509;-83
2022/09/09 02:36:37;;;;;;;12.37;11.17;;;;;;;19.34;81.15;95035.44;5072900;28;21012;-83
2022/09/09 02:39:08;;;;;;;11.80;10.20;;;;;;;19.30;81.37;95031.50;5072925;28;20943;-82
2022/09/09 02:41:39;;;;;;;12.60;10.97;;;;;;;19.28;81.09;95037.00;5073096;28;20440;-83
2022/09/09 02:44:07;;;;;;;12.20;11.00;;;;;;;19.31;80.63;95043.78;5072874;28;21200;-82
2022/09/09 02:46:45;;;;;;;11.50;10.30;;;;;;;19.29;79.97;95040.50;5073123;28;20473;-83
2022/09/09 02:49:19;;;;;;;14.27;11.18;;;;;;;19.31;80.13;95047.28;5072643;28;20439;-81
2022/09/09 02:51:55;;;;;;;12.10;11.00;;;;;;;19.23;80.06;95047.34;5074037;28;20197;-82
2022/09/09 02:54:27;;;;;;;13.20;10.60;;;;;;;19.28;80.23;95052.13;5056128;28;20444;-80
2022/09/09 02:56:56;;;;;;;12.17;10.97;;;;;;;19.31;80.19;95057.09;5073707;28;20796;-82
2022/09/09 02:59:23;;;;;;;11.93;10.60;;;;;;;19.29;80.29;95056.44;5073599;28;20465;-81
2022/09/09 03:01:50;;;;;;;11.83;10.70;;;;;;;19.31;80.30;95043.78;5073808;28;20437;-81
2022/09/09 03:04:17;;;;;;;14.33;12.07;;;;;;;19.30;80.28;95047.47;5073447;28;20440;-81
2022/09/09 03:06:44;;;;;;;13.00;11.07;;;;;;;19.32;80.38;95045.44;5073815;28;20508;-82
2022/09/09 03:09:11;;;;;;;13.20;10.70;;;;;;;19.31;80.70;95036.63;5054836;28;20502;-82
2022/09/09 03:11:39;;;;;;;12.27;11.17;;;;;;;19.31;81.07;95046.44;5074334;28;20475;-82
2022/09/09 03:14:08;;;;;;;11.67;10.53;;;;;;;19.23;81.30;95049.19;5073285;28;20472;-82
2022/09/09 03:16:35;;;;;;;13.60;12.30;;;;;;;19.24;81.18;95064.97;5073334;28;20440;-82
2022/09/09 03:19:02;;;;;;;12.60;11.37;;;;;;;19.18;81.61;95047.91;5073676;28;20441;-81
2022/09/09 03:21:28;;;;;;;12.30;11.10;;;;;;;19.21;81.43;95060.00;5073543;28;20839;-81
2022/09/09 03:23:55;;;;;;;12.40;11.17;;;;;;;19.22;81.29;95053.69;5073950;28;20441;-82
2022/09/09 03:26:22;;;;;;;13.60;12.23;;;;;;;19.21;81.70;95064.50;5073657;28;20437;-82
2022/09/09 03:28:51;;;;;;;16.23;12.57;;;;;;;19.19;81.47;95059.38;5073039;28;20583;-82
2022/09/09 03:31:19;;;;;;;15.13;11.30;;;;;;;19.20;81.35;95061.03;5073699;28;20961;-82
2022/09/09 03:34:01;;;;;;;12.70;11.00;;;;;;;19.17;81.84;95056.88;5073377;28;20433;-83
2022/09/09 03:36:29;;;;;;;13.17;11.87;;;;;;;19.16;81.60;95057.91;5073719;28;20436;-82
2022/09/09 03:38:56;;;;;;;13.80;10.77;;;;;;;19.16;81.54;95063.22;5073566;28;20433;-82
2022/09/09 03:41:23;;;;;;;14.27;12.20;;;;;;;19.13;81.98;95068.06;5073882;28;20446;-81
2022/09/09 03:43:51;;;;;;;13.10;11.90;;;;;;;19.08;82.18;95060.63;5073356;28;20437;-82
2022/09/09 03:46:19;;;;;;;11.03;10.13;;;;;;;19.05;82.01;95063.63;5054847;28;20463;-82
2022/09/09 03:48:46;;;;;;;12.00;11.00;;;;;;;19.05;82.07;95062.78;5073716;28;20461;-82
2022/09/09 04:01:19;;;;;;;16.60;11.50;;;;;;;18.92;82.87;95058.06;5077109;28;20404;-80
2022/09/09 04:03:46;;;;;;;12.87;10.63;;;;;;;18.89;82.92;95055.78;5076758;28;20812;-82
2022/09/09 04:06:14;;;;;;;13.20;11.30;;;;;;;18.87;83.16;95063.09;5076710;28;20440;-83
2022/09/09 04:08:41;;;;;;;14.07;11.43;;;;;;;18.80;82.99;95057.66;5077381;28;20469;-82
2022/09/09 04:11:09;;;;;;;13.07;11.33;;;;;;;18.85;82.98;95065.09;5077026;28;20432;-82
2022/09/09 04:13:38;;;;;;;13.13;10.73;;;;;;;18.87;82.84;95073.75;5076811;28;20920;-83
2022/09/09 04:22:56;;;;;;;11.30;10.20;;;;;;;19.35;83.19;95061.06;5076406;28;20439;-80
2022/09/09 04:25:23;;;;;;;13.00;9.87;;;;;;;19.57;80.64;95060.22;5077105;28;20466;-80
2022/09/09 04:27:55;;;;;;;12.27;11.07;;;;;;;19.87;79.32;95060.25;5076609;28;20469;-80
2022/09/09 04:30:22;;;;;;;19.73;12.07;;;;;;;19.73;78.47;95065.41;5076765;28;20563;-81
2022/09/09 04:32:48;;;;;;;15.20;11.93;;;;;;;19.78;78.57;95072.84;5076242;28;20935;-81
2022/09/09 04:35:24;;;;;;;23.80;11.63;;;;;;;19.74;78.35;95067.06;5076476;28;20413;-80
2022/09/09 04:37:51;;;;;;;12.53;11.17;;;;;;;19.86;78.15;95066.59;5076289;28;20826;-80
2022/09/09 04:40:22;;;;;;;13.83;11.53;;;;;;;19.97;77.85;95079.47;5077782;28;20446;-80
2022/09/09 04:42:49;;;;;;;19.53;12.70;;;;;;;20.13;77.90;95079.28;5078666;28;20441;-81
2022/09/09 04:45:16;;;;;;;26.27;11.40;;;;;;;20.28;77.43;95085.44;5076830;28;20960;-82
2022/09/09 04:47:43;;;;;;;11.63;10.53;;;;;;;20.47;77.08;95075.25;5076224;28;20843;-85
2022/09/09 04:50:11;;;;;;;13.13;11.13;;;;;;;20.59;75.62;95087.94;5076864;28;20441;-82
2022/09/09 04:52:38;;;;;;;12.87;11.60;;;;;;;20.56;74.65;95080.31;5075669;28;20536;-84
2022/09/09 04:55:06;;;;;;;14.80;11.10;;;;;;;20.52;74.44;95076.31;5076192;28;20977;-82
2022/09/09 04:57:35;;;;;;;12.67;11.50;;;;;;;20.44;74.45;95068.44;5076039;28;20433;-82
2022/09/09 05:00:03;;;;;;;27.93;12.53;;;;;;;20.24;75.56;95068.19;5075918;28;20962;-82
2022/09/09 05:02:30;;;;;;;18.23;11.20;;;;;;;20.34;76.12;95054.56;5076016;28;20464;-81
2022/09/09 05:04:57;;;;;;;13.23;11.23;;;;;;;20.49;75.85;95051.88;5057158;28;20483;-81
2022/09/09 05:07:23;;;;;;;20.57;11.87;;;;;;;20.79;74.80;95044.63;5042897;28;20901;-81
2022/09/09 05:09:50;;;;;;;14.17;12.30;;;;;;;21.16;73.67;95043.59;5056523;28;20437;-81
2022/09/09 05:12:17;;;;;;;24.37;11.80;;;;;;;21.68;71.90;95053.06;5075932;28;20449;-81
2022/09/09 05:14:45;;;;;;;12.53;11.20;;;;;;;22.07;70.82;95047.22;5075819;28;20448;-81
2022/09/09 05:17:13;;;;;;;12.30;10.00;;;;;;;22.37;68.48;95045.09;5069681;28;20454;-82
2022/09/09 05:26:29;;;;;;;10.20;9.27;;;;;;;23.35;63.46;95043.75;5064158;28;21001;-81
2022/09/09 05:28:56;;;;;;;12.20;8.80;;;;;;;23.61;62.58;95035.75;5075403;28;20508;-81
2022/09/09 05:31:27;;;;;;;17.10;10.10;;;;;;;23.85;62.47;95045.00;5075321;28;20453;-80
2022/09/09 05:33:54;;;;;;;9.50;8.60;;;;;;;23.98;61.77;95044.97;5055947;28;20469;-80
2022/09/09 05:36:22;;;;;;;9.50;8.50;;;;;;;24.19;60.53;95029.69;5063792;28;20460;-80
2022/09/09 05:38:50;;;;;;;10.87;8.40;;;;;;;24.40;59.28;95032.94;5074795;28;20444;-81
2022/09/09 05:41:17;;;;;;;11.43;8.37;;;;;;;24.61;58.22;95031.84;5073705;28;20476;-81
2022/09/09 05:43:46;;;;;;;14.60;10.17;;;;;;;24.85;58.51;95034.81;5073936;28;20452;-81
2022/09/09 05:46:14;;;;;;;10.40;8.17;;;;;;;25.08;57.15;95029.75;5073745;28;20452;-82
2022/09/09 05:48:46;;;;;;;11.57;8.00;;;;;;;25.32;57.03;95033.53;5073968;28;20481;-81
2022/09/09 05:51:15;;;;;;;9.23;6.70;;;;;;;25.57;56.21;95038.91;5073859;28;20955;-81
2022/09/09 05:53:42;;;;;;;15.03;7.50;;;;;;;25.81;54.11;95056.13;5073822;28;20601;-81
2022/09/09 05:56:11;;;;;;;8.30;7.60;;;;;;;25.80;53.13;95046.41;5073711;28;20436;-81
2022/09/09 05:58:38;;;;;;;10.07;8.23;;;;;;;25.97;53.50;95044.78;5038538;28;20573;-82
2022/09/09 06:01:06;;;;;;;8.13;7.30;;;;;;;26.19;52.99;95037.13;5073884;28;20441;-81
2022/09/09 06:03:35;;;;;;;8.63;6.93;;;;;;;26.36;52.35;95040.91;5073471;28;20502;-81
2022/09/09 06:06:06;;;;;;;12.60;7.93;;;;;;;26.48;51.06;95049.06;5073444;28;20441;-81
2022/09/09 06:08:33;;;;;;;11.00;8.47;;;;;;;26.43;50.00;95060.50;5073058;28;20928;-81
2022/09/09 06:11:05;;;;;;;10.43;8.40;;;;;;;26.36;50.47;95062.44;5073478;28;20452;-81
2022/09/09 06:13:33;;;;;;;9.13;7.73;;;;;;;26.31;50.97;95062.25;5073542;28;20495;-81
2022/09/09 06:16:00;;;;;;;8.53;7.63;;;;;;;26.29;52.07;95061.63;5038052;28;20448;-81
2022/09/09 06:18:27;;;;;;;11.00;7.77;;;;;;;26.37;51.93;95061.41;5073101;28;20445;-81
2022/09/09 06:20:55;;;;;;;8.53;7.73;;;;;;;26.39;50.92;95063.88;5072407;28;20437;-81
2022/09/09 06:23:24;;;;;;;12.47;7.97;;;;;;;26.35;51.46;95054.59;5073246;28;20436;-80
2022/09/09 06:25:51;;;;;;;9.03;8.17;;;;;;;26.43;51.29;95051.59;5073429;28;20437;-81
2022/09/09 06:28:19;;;;;;;8.70;7.80;;;;;;;26.60;51.05;95060.72;5073003;28;20994;-81
2022/09/09 06:30:45;;;;;;;14.30;8.27;;;;;;;26.83;51.10;95060.00;5054366;28;20437;-81
2022/09/09 06:33:12;;;;;;;9.63;7.40;;;;;;;27.04;50.44;95053.34;5073223;28;20437;-81
2022/09/09 06:35:39;;;;;;;12.90;8.47;;;;;;;27.25;49.65;95052.03;5072847;28;21046;-81
2022/09/09 06:38:06;;;;;;;8.33;7.63;;;;;;;27.24;48.54;95050.41;5073022;28;20830;-81
2022/09/09 06:40:35;;;;;;;10.13;8.00;;;;;;;27.32;48.73;95052.75;5072745;28;20456;-81
2022/09/09 06:43:02;;;;;;;9.67;7.80;;;;;;;27.12;48.94;95047.66;5053972;28;20943;-81
2022/09/09 06:45:29;;;;;;;10.87;8.47;;;;;;;26.97;49.37;95050.72;5072558;28;20448;-81
2022/09/09 06:47:56;;;;;;;10.23;8.23;;;;;;;27.10;49.75;95047.88;5053902;28;20983;-81
2022/09/09 06:50:23;;;;;;;12.40;9.03;;;;;;;27.12;49.05;95043.06;5072689;28;20468;-82
2022/09/09 06:52:50;;;;;;;14.40;8.53;;;;;;;27.10;49.77;95047.88;5072790;28;20798;-81
2022/09/09 06:55:17;;;;;;;10.40;8.30;;;;;;;27.04;49.56;95047.97;5072854;28;20459;-82
2022/09/09 06:57:46;;;;;;;18.70;9.60;;;;;;;27.03;48.64;95060.63;5072792;28;20549;-80
2022/09/09 07:00:14;;;;;;;12.83;9.47;;;;;;;27.01;49.59;95059.22;5053953;28;20498;-81
2022/09/09 07:02:41;;;;;;;10.43;8.87;;;;;;;27.01;49.56;95062.72;5072350;28;20885;-81
2022/09/09 07:05:09;;;;;;;11.57;9.80;;;;;;;27.09;49.32;95065.09;5072409;28;20940;-81
2022/09/09 07:07:37;;;;;;;15.00;10.07;;;;;;;26.93;49.53;95068.41;5072368;28;20476;-81
2022/09/09 07:10:05;;;;;;;15.13;8.70;;;;;;;26.99;49.17;95064.00;5072662;28;20443;-82
2022/09/09 07:15:54;;;;;;;9.20;8.17;;;;;;;26.87;48.24;95066.59;5029935;28;20458;-82
2022/09/09 07:19:02;;;;;;;13.43;8.90;;;;;;;26.98;48.68;95060.44;4895025;29;20452;-82
2022/09/09 07:21:31;;;;;;;13.17;8.10;;;;;;;27.13;48.19;95055.50;4821354;29;20495;-82
2022/09/09 07:23:59;;;;;;;10.40;7.93;;;;;;;27.26;49.54;95054.50;4821183;29;20509;-81
2022/09/09 07:26:28;;;;;;;9.40;8.00;;;;;;;27.23;47.75;95054.13;4821182;29;20472;-81
2022/09/09 07:28:55;;;;;;;12.63;9.30;;;;;;;27.26;48.85;95053.69;4821005;29;20512;-82
2022/09/09 07:31:24;;;;;;;12.03;8.13;;;;;;;27.35;49.08;95049.59;4821083;29;20448;-82
2022/09/09 07:33:53;;;;;;;10.73;7.87;;;;;;;27.35;48.98;95052.28;4821192;29;20521;-81
2022/09/09 07:36:22;;;;;;;14.23;7.87;;;;;;;27.25;47.84;95052.03;4836013;29;20460;-82
2022/09/09 07:38:51;;;;;;;17.13;8.17;;;;;;;27.31;48.70;95046.53;4821293;29;20491;-79
2022/09/09 07:41:20;;;;;;;24.40;9.47;;;;;;;27.30;49.02;95041.38;4821166;29;20948;-82
2022/09/09 07:43:48;;;;;;;13.00;9.03;;;;;;;27.18;48.76;95046.75;4820981;29;20453;-80
2022/09/09 07:46:16;;;;;;;18.77;9.50;;;;;;;27.08;49.01;95058.06;4840951;29;20487;-80
2022/09/09 07:48:45;;;;;;;12.33;8.40;;;;;;;27.16;48.30;95054.22;4891441;29;20491;-80
2022/09/09 07:51:18;;;;;;;15.63;8.13;;;;;;;27.33;47.87;95049.81;4932696;29;20447;-80
2022/09/09 07:53:46;;;;;;;13.37;8.10;;;;;;;27.57;48.36;95061.50;4932818;29;20502;-81
2022/09/09 07:56:16;;;;;;;12.27;8.00;;;;;;;27.32;47.63;95056.28;4978005;28;20949;-82
2022/09/09 07:58:45;;;;;;;13.00;8.60;;;;;;;27.54;48.33;95053.06;5042590;28;20444;-79
2022/09/09 08:01:15;;;;;;;14.43;8.10;;;;;;;27.73;47.53;95054.63;5071930;28;20444;-79
2022/09/09 08:03:44;;;;;;;10.73;7.77;;;;;;;27.74;48.00;95051.69;5072093;28;20441;-82
2022/09/09 08:06:12;;;;;;;9.27;7.90;;;;;;;27.80;47.10;95049.97;5071689;28;20877;-80
2022/09/09 08:08:43;;;;;;;11.00;7.30;;;;;;;28.13;46.76;95049.38;5071929;28;20480;-80
2022/09/09 08:11:12;;;;;;;10.33;7.07;;;;;;;28.47;46.11;95044.22;5071879;28;20824;-80
2022/09/09 08:13:40;;;;;;;12.70;7.27;;;;;;;28.78;44.92;95045.69;5072274;28;20441;-81
2022/09/09 08:16:08;;;;;;;10.90;6.83;;;;;;;28.83;45.53;95048.47;5071879;28;20449;-80
2022/09/09 08:18:36;;;;;;;11.37;7.43;;;;;;;28.62;45.26;95050.78;5071921;28;20448;-79
2022/09/09 08:21:12;;;;;;;12.63;7.60;;;;;;;28.25;46.80;95050.22;5071955;28;20456;-80
2022/09/09 08:23:41;;;;;;;8.27;7.40;;;;;;;28.10;48.38;95044.47;5072075;28;20468;-81
2022/09/09 08:26:12;;;;;;;7.60;6.90;;;;;;;27.94;47.61;95045.16;5071610;28;20923;-80
2022/09/09 08:28:39;;;;;;;10.00;8.17;;;;;;;27.92;48.10;95042.69;5071747;28;20506;-80
2022/09/09 08:31:09;;;;;;;7.70;7.00;;;;;;;27.85;47.95;95031.19;5071977;28;20441;-81
2022/09/09 08:33:37;;;;;;;8.23;7.00;;;;;;;27.82;48.58;95042.47;5036201;28;20448;-80
2022/09/09 08:36:05;;;;;;;12.53;7.57;;;;;;;27.58;47.68;95030.78;5071676;28;20760;-81
2022/09/09 08:38:33;;;;;;;9.97;8.20;;;;;;;27.49;47.63;95037.59;5071836;28;20449;-80
2022/09/09 08:41:15;;;;;;;7.90;7.10;;;;;;;27.44;48.36;95042.81;5072194;28;20809;-80
2022/09/09 08:43:44;;;;;;;7.80;7.10;;;;;;;27.44;49.00;95046.34;5073308;28;20455;-83
2022/09/09 08:46:20;;;;;;;9.50;7.37;;;;;;;27.47;49.58;95039.69;5076517;28;20425;-82
2022/09/09 08:48:58;;;;;;;9.20;7.37;;;;;;;27.48;50.03;95029.72;5076297;28;20479;-82
2022/09/09 08:51:29;;;;;;;9.97;7.07;;;;;;;27.53;49.49;95033.38;5075987;28;20441;-81
2022/09/09 08:53:59;;;;;;;8.50;7.50;;;;;;;27.52;50.13;95031.72;5057555;28;20480;-83
2022/09/09 08:56:29;;;;;;;8.50;7.73;;;;;;;27.51;50.95;95040.88;5075829;28;20448;-80
2022/09/09 08:58:57;;;;;;;12.03;7.47;;;;;;;27.48;51.45;95035.94;5057338;28;20953;-81
2022/09/09 09:01:41;;;;;;;16.57;7.20;;;;;;;27.43;49.06;95025.00;5057234;28;20567;-82
2022/09/09 09:04:21;;;;;;;9.57;8.33;;;;;;;27.27;49.14;95029.19;5075353;28;20444;-81
2022/09/09 09:06:56;;;;;;;10.97;8.00;;;;;;;27.11;49.77;95021.75;5074825;28;20432;-81
2022/09/09 09:09:33;;;;;;;9.10;7.80;;;;;;;27.09;50.26;95024.69;5074918;28;21015;-81
2022/09/09 09:12:09;;;;;;;9.33;8.10;;;;;;;27.04;49.74;95021.84;5075462;28;20433;-81
2022/09/09 09:14:38;;;;;;;9.40;7.00;;;;;;;27.04;50.01;95018.34;5075626;28;20907;-81
2022/09/09 09:17:07;;;;;;;11.73;7.90;;;;;;;27.16;50.04;95019.19;5075799;28;20441;-81
2022/09/09 09:19:36;;;;;;;13.90;8.13;;;;;;;27.27;51.56;95031.06;5076160;28;20429;-81
2022/09/09 09:22:18;;;;;;;9.77;8.03;;;;;;;27.25;49.84;95027.78;5075682;28;20456;-81
2022/09/09 09:24:52;;;;;;;9.50;8.47;;;;;;;27.11;50.15;95014.50;5076038;28;20436;-81
2022/09/09 09:27:30;;;;;;;8.27;7.37;;;;;;;27.00;51.37;95015.28;5075251;28;20786;-81
2022/09/09 09:29:58;;;;;;;13.07;8.40;;;;;;;26.95;51.22;95008.91;5074895;28;21211;-81
2022/09/09 09:32:28;;;;;;;8.87;7.97;;;;;;;26.91;50.62;95013.13;5074190;28;20448;-83
2022/09/09 09:34:57;;;;;;;10.77;7.57;;;;;;;26.87;51.57;95023.50;5074095;28;20448;-81
2022/09/09 09:37:33;;;;;;;8.37;7.60;;;;;;;26.85;52.48;95021.03;5073699;28;20485;-80
2022/09/09 09:40:10;;;;;;;8.90;8.10;;;;;;;26.86;51.25;95013.78;5074298;28;20761;-81
2022/09/09 09:42:39;;;;;;;10.37;8.80;;;;;;;26.82;51.05;95018.81;5073734;28;20456;-80
2022/09/09 09:45:18;;;;;;;9.77;7.40;;;;;;;26.88;52.54;95022.44;5074292;28;20512;-81
2022/09/09 09:47:44;;;;;;;8.13;7.33;;;;;;;26.80;51.41;95012.81;5073529;28;20482;-81
2022/09/09 09:50:18;;;;;;;8.37;7.00;;;;;;;26.75;50.60;95009.16;5073435;28;20495;-82
2022/09/09 09:52:55;;;;;;;15.40;8.87;;;;;;;26.67;51.11;95004.09;5073584;28;20453;-81
2022/09/09 09:55:24;;;;;;;8.93;8.03;;;;;;;26.68;51.83;94998.50;5073839;28;20531;-81
2022/09/09 09:57:53;;;;;;;12.13;8.67;;;;;;;26.75;53.32;95001.91;5039004;28;20448;-81
2022/09/09 10:00:22;;;;;;;13.70;10.03;;;;;;;26.90;53.62;94998.00;5054945;28;20433;-81
2022/09/09 10:02:52;;;;;;;7.90;7.20;;;;;;;27.00;52.31;94996.44;5073721;28;20799;-81
2022/09/09 10:05:21;;;;;;;13.60;8.77;;;;;;;27.12;51.89;94997.28;5073555;28;20445;-81
2022/09/09 10:08:01;;;;;;;14.40;7.97;;;;;;;27.24;52.54;94986.53;5073968;28;20855;-80
2022/09/09 10:10:40;;;;;;;16.17;8.33;;;;;;;27.37;51.88;94986.31;5073997;28;20991;-81
2022/09/09 10:13:15;;;;;;;12.33;8.23;;;;;;;27.41;50.55;94986.69;5073550;28;20961;-81
2022/09/09 10:15:50;;;;;;;9.47;7.27;;;;;;;27.42;50.58;94996.41;5054720;28;20445;-81
2022/09/09 10:18:32;;;;;;;8.13;7.00;;;;;;;27.42;52.72;94996.41;5073530;28;20471;-81
2022/09/09 10:21:10;;;;;;;8.63;7.63;;;;;;;27.42;51.49;95004.50;5073017;28;20449;-81
2022/09/09 10:23:54;;;;;;;14.70;8.53;;;;;;;27.38;52.12;95004.13;5073293;28;20927;-81
2022/09/09 10:26:35;;;;;;;14.30;8.37;;;;;;;27.32;50.85;95004.25;5072847;28;21010;-81
2022/09/09 10:29:22;;;;;;;9.23;7.13;;;;;;;27.28;52.05;95013.84;5073030;28;20496;-81
2022/09/09 10:32:00;;;;;;;8.90;8.17;;;;;;;27.22;51.02;95010.22;5072845;28;20955;-81
2022/09/09 10:34:52;;;;;;;11.43;7.60;;;;;;;27.03;51.25;95004.03;5072611;28;20441;-81
2022/09/09 10:37:33;;;;;;;9.40;7.97;;;;;;;26.95;51.71;95006.22;4978230;28;20443;-81
2022/09/09 10:40:07;;;;;;;16.20;9.70;;;;;;;26.88;52.47;95008.97;5010844;28;20447;-81
2022/09/09 10:42:34;;;;;;;12.30;8.60;;;;;;;26.80;51.58;95003.91;5010720;28;20522;-81
2022/09/09 10:45:15;;;;;;;19.33;8.47;;;;;;;26.77;51.98;95002.50;4978212;28;20880;-83
2022/09/09 10:48:09;;;;;;;8.97;7.17;;;;;;;26.79;55.15;95003.09;5011069;28;20505;-83
2022/09/09 10:50:49;;;;;;;13.00;7.57;;;;;;;26.74;52.81;94996.75;5010802;28;20486;-81
2022/09/09 10:53:25;;;;;;;16.50;8.03;;;;;;;26.67;52.69;95009.50;5010826;28;20547;-81
2022/09/09 10:55:57;;;;;;;16.23;8.30;;;;;;;26.60;52.79;95006.03;5010897;28;20443;-81
2022/09/09 10:58:29;;;;;;;9.57;7.93;;;;;;;26.58;53.37;95002.75;5010501;28;20452;-81
2022/09/09 11:01:02;;;;;;;14.20;12.73;;;;;;;26.58;52.99;95000.06;5010524;28;20442;-81
2022/09/09 11:03:30;;;;;;;11.57;10.07;;;;;;;26.55;53.60;94994.09;5010511;28;20534;-81
2022/09/09 11:06:01;;;;;;;12.23;8.90;;;;;;;26.54;53.95;94997.81;5010162;28;20502;-82
2022/09/09 11:08:30;;;;;;;9.03;7.87;;;;;;;26.51;54.00;95000.16;5010405;28;20471;-82
2022/09/09 11:11:03;;;;;;;12.83;8.00;;;;;;;26.51;54.74;95006.34;5010351;28;20577;-81
2022/09/09 11:13:38;;;;;;;9.13;7.93;;;;;;;26.47;54.19;95009.72;5012751;28;20528;-82
2022/09/09 11:16:20;;;;;;;14.07;8.57;;;;;;;26.44;54.33;95005.63;5072043;28;20456;-81
2022/09/09 11:18:47;;;;;;;12.07;9.20;;;;;;;26.41;53.63;95008.78;5072568;28;20459;-80
2022/09/09 11:21:23;;;;;;;13.70;10.90;;;;;;;26.40;53.98;95003.63;5072070;28;20448;-81
2022/09/09 11:23:55;;;;;;;14.43;9.77;;;;;;;26.37;54.30;95001.38;5072210;28;20449;-81
2022/09/09 11:26:32;;;;;;;9.50;8.60;;;;;;;26.44;56.88;94996.72;5071978;28;20452;-81
2022/09/09 11:29:29;;;;;;;11.70;9.13;;;;;;;26.46;56.15;94992.75;5072112;28;21043;-81
2022/09/09 11:32:13;;;;;;;14.33;9.37;;;;;;;26.53;55.74;94985.41;5029951;28;20549;-81
2022/09/09 11:34:56;;;;;;;15.77;9.20;;;;;;;26.61;55.81;94986.19;5029806;28;20904;-81
2022/09/09 11:37:54;;;;;;;16.17;10.10;;;;;;;26.75;54.58;94979.56;5029992;28;20454;-81
2022/09/09 11:40:25;;;;;;;14.50;8.70;;;;;;;26.84;57.38;94972.78;5029913;28;20937;-81
2022/09/09 11:43:04;;;;;;;13.77;9.17;;;;;;;26.83;56.85;94966.59;4964988;28;20435;-81
2022/09/09 11:45:33;;;;;;;14.83;9.70;;;;;;;26.81;53.92;94963.31;5029987;28;20533;-81
2022/09/09 11:48:02;;;;;;;10.97;9.97;;;;;;;26.77;53.60;94962.13;5029973;28;20859;-82
2022/09/09 11:50:32;;;;;;;17.40;9.70;;;;;;;26.71;54.47;94959.53;5029752;28;20479;-82
2022/09/09 11:53:24;;;;;;;12.60;10.53;;;;;;;26.63;53.91;94947.22;5029717;28;20446;-82
2022/09/09 11:56:10;;;;;;;18.57;10.00;;;;;;;26.63;54.42;94935.63;4970701;28;20947;-81
2022/09/09 11:58:55;;;;;;;10.67;8.43;;;;;;;26.61;54.05;94927.78;4970940;28;20455;-82
2022/09/09 12:01:39;;;;;;;12.03;8.63;;;;;;;26.37;57.99;94910.69;4970915;28;20452;-82
2022/09/09 12:04:30;;;;;;;12.87;9.57;;;;;;;26.38;59.14;94908.84;4970752;28;20500;-81
2022/09/09 12:07:02;;;;;;;16.13;8.77;;;;;;;26.36;57.78;94919.81;4924316;28;20449;-81
2022/09/09 12:09:37;;;;;;;15.07;9.97;;;;;;;26.33;57.77;94908.66;4958236;28;20898;-82
2022/09/09 12:12:21;;;;;;;9.80;8.67;;;;;;;26.40;57.44;94926.41;5009555;28;20477;-82
2022/09/09 12:14:59;;;;;;;13.03;9.10;;;;;;;26.47;57.38;94919.03;5009765;28;20471;-82